sensor_id;sensor_type;location;lat;lon;timestamp;P1;durP1;ratioP1;P2;durP2;ratioP2
58340;SDS011;44149;43.060;0.104;2022-09-13T00:00:49;2.92;;;0.80;;
58340;SDS011;44149;43.060;0.104;2022-09-13T00:03:15;1.58;;;0.90;;
58340;SDS011;44149;43.060;0.104;2022-09-13T00:05:42;0.55;;;0.55;;
58340;SDS011;44149;43.060;0.104;2022-09-13T00:08:08;1.10;;;0.60;;
58340;SDS011;44149;43.060;0.104;2022-09-13T00:10:35;2.45;;;0.52;;
58340;SDS011;44149;43.060;0.104;2022-09-13T00:13:03;2.08;;;0.70;;
58340;SDS011;44149;43.060;0.104;2022-09-13T00:15:29;1.10;;;0.57;;
58340;SDS011;44149;43.060;0.104;2022-09-13T00:17:55;2.15;;;0.65;;
58340;SDS011;44149;43.060;0.104;2022-09-13T00:20:22;0.68;;;0.68;;
58340;SDS011;44149;43.060;0.104;2022-09-13T00:22:48;2.95;;;0.90;;
58340;SDS011;44149;43.060;0.104;2022-09-13T00:25:14;3.65;;;0.63;;
58340;SDS011;44149;43.060;0.104;2022-09-13T00:27:40;1.60;;;0.60;;
58340;SDS011;44149;43.060;0.104;2022-09-13T00:30:09;1.77;;;0.45;;
58340;SDS011;44149;43.060;0.104;2022-09-13T00:32:35;1.85;;;0.77;;
58340;SDS011;44149;43.060;0.104;2022-09-13T00:35:02;2.33;;;0.95;;
58340;SDS011;44149;43.060;0.104;2022-09-13T00:37:29;2.53;;;0.82;;
58340;SDS011;44149;43.060;0.104;2022-09-13T00:39:57;1.95;;;0.68;;
58340;SDS011;44149;43.060;0.104;2022-09-13T00:42:27;1.38;;;0.50;;
58340;SDS011;44149;43.060;0.104;2022-09-13T00:52:37;2.55;;;0.77;;
58340;SDS011;44149;43.060;0.104;2022-09-13T00:55:05;0.80;;;0.55;;
58340;SDS011;44149;43.060;0.104;2022-09-13T00:57:33;1.73;;;0.70;;
58340;SDS011;44149;43.060;0.104;2022-09-13T01:00:07;0.73;;;0.70;;
58340;SDS011;44149;43.060;0.104;2022-09-13T01:02:36;1.30;;;0.60;;
58340;SDS011;44149;43.060;0.104;2022-09-13T01:05:02;1.90;;;0.80;;
58340;SDS011;44149;43.060;0.104;2022-09-13T01:07:29;2.78;;;0.68;;
58340;SDS011;44149;43.060;0.104;2022-09-13T01:09:55;1.17;;;0.77;;
58340;SDS011;44149;43.060;0.104;2022-09-13T01:12:28;1.92;;;0.85;;
58340;SDS011;44149;43.060;0.104;2022-09-13T01:14:57;3.05;;;0.80;;
58340;SDS011;44149;43.060;0.104;2022-09-13T01:17:27;3.03;;;0.80;;
58340;SDS011;44149;43.060;0.104;2022-09-13T01:19:54;1.10;;;0.70;;
58340;SDS011;44149;43.060;0.104;2022-09-13T01:22:25;0.90;;;0.68;;
58340;SDS011;44149;43.060;0.104;2022-09-13T01:30:17;3.38;;;0.80;;
58340;SDS011;44149;43.060;0.104;2022-09-13T01:32:59;4.00;;;1.00;;
58340;SDS011;44149;43.060;0.104;2022-09-13T01:46:15;1.52;;;0.80;;
58340;SDS011;44149;43.060;0.104;2022-09-13T01:51:15;3.40;;;1.23;;
58340;SDS011;44149;43.060;0.104;2022-09-13T01:56:32;4.22;;;0.93;;
58340;SDS011;44149;43.060;0.104;2022-09-13T01:59:05;2.10;;;0.80;;
58340;SDS011;44149;43.060;0.104;2022-09-13T02:01:39;2.97;;;0.57;;
58340;SDS011;44149;43.060;0.104;2022-09-13T02:04:10;1.75;;;0.93;;
58340;SDS011;44149;43.060;0.104;2022-09-13T02:06:40;0.68;;;0.60;;
58340;SDS011;44149;43.060;0.104;2022-09-13T02:09:13;2.05;;;0.70;;
58340;SDS011;44149;43.060;0.104;2022-09-13T02:11:40;1.17;;;0.65;;
58340;SDS011;44149;43.060;0.104;2022-09-13T02:16:37;1.02;;;0.68;;
58340;SDS011;44149;43.060;0.104;2022-09-13T02:19:06;1.50;;;1.00;;
58340;SDS011;44149;43.060;0.104;2022-09-13T02:21:35;0.70;;;0.70;;
58340;SDS011;44149;43.060;0.104;2022-09-13T02:24:07;1.15;;;0.90;;
58340;SDS011;44149;43.060;0.104;2022-09-13T02:26:34;1.80;;;0.88;;
58340;SDS011;44149;43.060;0.104;2022-09-13T02:29:03;1.02;;;0.55;;
58340;SDS011;44149;43.060;0.104;2022-09-13T02:31:34;1.40;;;0.70;;
58340;SDS011;44149;43.060;0.104;2022-09-13T02:34:17;0.95;;;0.77;;
58340;SDS011;44149;43.060;0.104;2022-09-13T02:36:45;0.93;;;0.70;;
58340;SDS011;44149;43.060;0.104;2022-09-13T02:39:16;0.57;;;0.50;;
58340;SDS011;44149;43.060;0.104;2022-09-13T02:41:56;1.00;;;0.77;;
58340;SDS011;44149;43.060;0.104;2022-09-13T02:52:12;2.25;;;0.85;;
58340;SDS011;44149;43.060;0.104;2022-09-13T02:54:55;1.30;;;0.60;;
58340;SDS011;44149;43.060;0.104;2022-09-13T02:57:26;1.55;;;1.00;;
58340;SDS011;44149;43.060;0.104;2022-09-13T02:59:55;1.42;;;0.60;;
58340;SDS011;44149;43.060;0.104;2022-09-13T03:02:21;2.25;;;0.90;;
58340;SDS011;44149;43.060;0.104;2022-09-13T03:04:50;3.17;;;0.90;;
58340;SDS011;44149;43.060;0.104;2022-09-13T03:07:17;0.63;;;0.60;;
58340;SDS011;44149;43.060;0.104;2022-09-13T03:09:53;2.25;;;0.73;;
58340;SDS011;44149;43.060;0.104;2022-09-13T03:12:29;2.55;;;0.50;;
58340;SDS011;44149;43.060;0.104;2022-09-13T03:17:50;2.33;;;0.90;;
58340;SDS011;44149;43.060;0.104;2022-09-13T03:20:29;2.85;;;0.47;;
58340;SDS011;44149;43.060;0.104;2022-09-13T03:23:18;0.50;;;0.50;;
58340;SDS011;44149;43.060;0.104;2022-09-13T03:31:32;1.00;;;0.70;;
58340;SDS011;44149;43.060;0.104;2022-09-13T03:36:30;1.02;;;0.45;;
58340;SDS011;44149;43.060;0.104;2022-09-13T03:41:29;1.48;;;0.52;;
58340;SDS011;44149;43.060;0.104;2022-09-13T03:46:24;1.58;;;0.32;;
58340;SDS011;44149;43.060;0.104;2022-09-13T03:48:51;3.42;;;1.15;;
58340;SDS011;44149;43.060;0.104;2022-09-13T03:51:18;3.20;;;0.52;;
58340;SDS011;44149;43.060;0.104;2022-09-13T03:53:46;2.85;;;0.82;;
58340;SDS011;44149;43.060;0.104;2022-09-13T03:56:17;0.65;;;0.50;;
58340;SDS011;44149;43.060;0.104;2022-09-13T03:58:43;2.42;;;0.80;;
58340;SDS011;44149;43.060;0.104;2022-09-13T04:01:10;0.77;;;0.60;;
58340;SDS011;44149;43.060;0.104;2022-09-13T04:03:36;2.25;;;0.50;;
58340;SDS011;44149;43.060;0.104;2022-09-13T04:06:03;4.15;;;0.63;;
58340;SDS011;44149;43.060;0.104;2022-09-13T04:08:30;2.75;;;0.50;;
58340;SDS011;44149;43.060;0.104;2022-09-13T04:10:56;1.45;;;0.32;;
58340;SDS011;44149;43.060;0.104;2022-09-13T04:13:22;1.73;;;0.47;;
58340;SDS011;44149;43.060;0.104;2022-09-13T04:15:48;1.98;;;0.65;;
58340;SDS011;44149;43.060;0.104;2022-09-13T04:18:15;0.40;;;0.40;;
58340;SDS011;44149;43.060;0.104;2022-09-13T04:20:41;2.53;;;0.73;;
58340;SDS011;44149;43.060;0.104;2022-09-13T04:23:08;6.22;;;1.25;;
58340;SDS011;44149;43.060;0.104;2022-09-13T04:25:36;2.70;;;0.70;;
58340;SDS011;44149;43.060;0.104;2022-09-13T04:28:03;2.67;;;0.50;;
58340;SDS011;44149;43.060;0.104;2022-09-13T04:30:29;4.63;;;0.68;;
58340;SDS011;44149;43.060;0.104;2022-09-13T04:32:55;0.68;;;0.45;;
58340;SDS011;44149;43.060;0.104;2022-09-13T04:35:21;1.27;;;0.50;;
58340;SDS011;44149;43.060;0.104;2022-09-13T04:37:53;2.42;;;0.63;;
58340;SDS011;44149;43.060;0.104;2022-09-13T04:40:20;1.77;;;0.63;;
58340;SDS011;44149;43.060;0.104;2022-09-13T04:42:47;1.17;;;0.50;;
58340;SDS011;44149;43.060;0.104;2022-09-13T04:45:14;4.65;;;0.80;;
58340;SDS011;44149;43.060;0.104;2022-09-13T04:47:40;0.40;;;0.38;;
58340;SDS011;44149;43.060;0.104;2022-09-13T04:50:06;2.20;;;0.45;;
58340;SDS011;44149;43.060;0.104;2022-09-13T04:52:34;4.13;;;0.70;;
58340;SDS011;44149;43.060;0.104;2022-09-13T04:55:00;1.40;;;0.55;;
58340;SDS011;44149;43.060;0.104;2022-09-13T04:57:27;4.70;;;0.75;;
58340;SDS011;44149;43.060;0.104;2022-09-13T04:59:53;2.92;;;0.80;;
58340;SDS011;44149;43.060;0.104;2022-09-13T05:02:19;1.73;;;0.50;;
58340;SDS011;44149;43.060;0.104;2022-09-13T05:04:46;1.50;;;0.73;;
58340;SDS011;44149;43.060;0.104;2022-09-13T05:07:12;0.85;;;0.57;;
58340;SDS011;44149;43.060;0.104;2022-09-13T05:09:38;4.85;;;0.90;;
58340;SDS011;44149;43.060;0.104;2022-09-13T05:12:04;1.92;;;0.43;;
58340;SDS011;44149;43.060;0.104;2022-09-13T05:14:33;2.47;;;0.55;;
58340;SDS011;44149;43.060;0.104;2022-09-13T05:16:59;2.72;;;0.80;;
58340;SDS011;44149;43.060;0.104;2022-09-13T05:19:25;1.35;;;0.85;;
58340;SDS011;44149;43.060;0.104;2022-09-13T05:21:52;7.88;;;0.90;;
58340;SDS011;44149;43.060;0.104;2022-09-13T05:24:18;1.63;;;0.40;;
58340;SDS011;44149;43.060;0.104;2022-09-13T05:26:44;1.35;;;0.45;;
58340;SDS011;44149;43.060;0.104;2022-09-13T05:29:10;3.33;;;0.60;;
58340;SDS011;44149;43.060;0.104;2022-09-13T05:31:37;0.52;;;0.47;;
58340;SDS011;44149;43.060;0.104;2022-09-13T05:34:08;1.23;;;0.25;;
58340;SDS011;44149;43.060;0.104;2022-09-13T05:36:35;1.52;;;0.73;;
58340;SDS011;44149;43.060;0.104;2022-09-13T05:39:02;2.53;;;0.47;;
58340;SDS011;44149;43.060;0.104;2022-09-13T05:41:28;3.08;;;0.55;;
58340;SDS011;44149;43.060;0.104;2022-09-13T05:43:54;1.58;;;0.63;;
58340;SDS011;44149;43.060;0.104;2022-09-13T05:46:20;3.40;;;0.60;;
58340;SDS011;44149;43.060;0.104;2022-09-13T05:48:47;2.63;;;0.95;;
58340;SDS011;44149;43.060;0.104;2022-09-13T05:51:14;1.80;;;0.60;;
58340;SDS011;44149;43.060;0.104;2022-09-13T05:53:41;2.90;;;0.40;;
58340;SDS011;44149;43.060;0.104;2022-09-13T05:56:08;3.28;;;0.68;;
58340;SDS011;44149;43.060;0.104;2022-09-13T05:58:38;7.43;;;0.77;;
58340;SDS011;44149;43.060;0.104;2022-09-13T06:01:05;1.35;;;0.40;;
58340;SDS011;44149;43.060;0.104;2022-09-13T06:03:32;1.67;;;0.80;;
58340;SDS011;44149;43.060;0.104;2022-09-13T06:05:58;4.72;;;1.33;;
58340;SDS011;44149;43.060;0.104;2022-09-13T06:08:25;3.88;;;0.73;;
58340;SDS011;44149;43.060;0.104;2022-09-13T06:11:06;2.85;;;0.90;;
58340;SDS011;44149;43.060;0.104;2022-09-13T06:13:32;3.58;;;0.77;;
58340;SDS011;44149;43.060;0.104;2022-09-13T06:15:59;1.02;;;0.43;;
58340;SDS011;44149;43.060;0.104;2022-09-13T06:18:25;2.72;;;0.82;;
58340;SDS011;44149;43.060;0.104;2022-09-13T06:20:58;2.42;;;0.60;;
58340;SDS011;44149;43.060;0.104;2022-09-13T06:23:25;3.10;;;0.65;;
58340;SDS011;44149;43.060;0.104;2022-09-13T06:28:51;2.15;;;0.47;;
58340;SDS011;44149;43.060;0.104;2022-09-13T06:31:19;5.13;;;0.73;;
58340;SDS011;44149;43.060;0.104;2022-09-13T06:33:45;1.77;;;0.50;;
58340;SDS011;44149;43.060;0.104;2022-09-13T06:38:42;2.85;;;1.10;;
58340;SDS011;44149;43.060;0.104;2022-09-13T06:41:10;3.03;;;0.52;;
58340;SDS011;44149;43.060;0.104;2022-09-13T06:43:36;1.38;;;0.40;;
58340;SDS011;44149;43.060;0.104;2022-09-13T06:46:13;2.92;;;0.50;;
58340;SDS011;44149;43.060;0.104;2022-09-13T06:48:40;1.98;;;0.70;;
58340;SDS011;44149;43.060;0.104;2022-09-13T06:51:08;3.05;;;0.55;;
58340;SDS011;44149;43.060;0.104;2022-09-13T06:53:35;1.13;;;0.50;;
58340;SDS011;44149;43.060;0.104;2022-09-13T06:56:02;3.30;;;0.55;;
58340;SDS011;44149;43.060;0.104;2022-09-13T06:58:30;1.38;;;0.60;;
58340;SDS011;44149;43.060;0.104;2022-09-13T07:03:35;3.95;;;0.88;;
58340;SDS011;44149;43.060;0.104;2022-09-13T07:06:08;4.43;;;0.60;;
58340;SDS011;44149;43.060;0.104;2022-09-13T07:08:34;4.40;;;0.77;;
58340;SDS011;44149;43.060;0.104;2022-09-13T07:11:01;0.75;;;0.40;;
58340;SDS011;44149;43.060;0.104;2022-09-13T07:13:27;1.65;;;0.70;;
58340;SDS011;44149;43.060;0.104;2022-09-13T07:15:54;2.00;;;0.45;;
58340;SDS011;44149;43.060;0.104;2022-09-13T07:18:20;2.33;;;0.57;;
58340;SDS011;44149;43.060;0.104;2022-09-13T07:20:46;2.75;;;0.50;;
58340;SDS011;44149;43.060;0.104;2022-09-13T07:23:13;2.53;;;0.60;;
58340;SDS011;44149;43.060;0.104;2022-09-13T07:25:39;4.15;;;0.52;;
58340;SDS011;44149;43.060;0.104;2022-09-13T07:28:05;3.38;;;0.50;;
58340;SDS011;44149;43.060;0.104;2022-09-13T07:30:32;2.63;;;0.75;;
58340;SDS011;44149;43.060;0.104;2022-09-13T07:32:58;1.85;;;0.55;;
58340;SDS011;44149;43.060;0.104;2022-09-13T07:35:24;4.05;;;0.60;;
58340;SDS011;44149;43.060;0.104;2022-09-13T07:37:50;2.78;;;0.52;;
58340;SDS011;44149;43.060;0.104;2022-09-13T07:40:16;2.45;;;0.50;;
58340;SDS011;44149;43.060;0.104;2022-09-13T07:42:43;2.90;;;0.52;;
58340;SDS011;44149;43.060;0.104;2022-09-13T07:45:09;2.88;;;0.57;;
58340;SDS011;44149;43.060;0.104;2022-09-13T07:47:36;3.72;;;0.70;;
58340;SDS011;44149;43.060;0.104;2022-09-13T07:50:02;0.98;;;0.45;;
58340;SDS011;44149;43.060;0.104;2022-09-13T07:52:29;4.53;;;0.50;;
58340;SDS011;44149;43.060;0.104;2022-09-13T07:54:55;2.05;;;0.68;;
58340;SDS011;44149;43.060;0.104;2022-09-13T07:57:22;1.75;;;0.50;;
58340;SDS011;44149;43.060;0.104;2022-09-13T07:59:49;0.55;;;0.40;;
58340;SDS011;44149;43.060;0.104;2022-09-13T08:02:15;3.53;;;0.40;;
58340;SDS011;44149;43.060;0.104;2022-09-13T08:04:42;0.77;;;0.30;;
58340;SDS011;44149;43.060;0.104;2022-09-13T08:07:08;3.20;;;0.82;;
58340;SDS011;44149;43.060;0.104;2022-09-13T08:09:34;2.47;;;0.50;;
58340;SDS011;44149;43.060;0.104;2022-09-13T08:12:01;2.45;;;0.50;;
58340;SDS011;44149;43.060;0.104;2022-09-13T08:14:27;4.40;;;0.52;;
58340;SDS011;44149;43.060;0.104;2022-09-13T08:16:54;4.30;;;0.60;;
58340;SDS011;44149;43.060;0.104;2022-09-13T08:19:21;2.60;;;0.50;;
58340;SDS011;44149;43.060;0.104;2022-09-13T08:21:47;2.53;;;0.60;;
58340;SDS011;44149;43.060;0.104;2022-09-13T08:24:19;1.83;;;0.60;;
58340;SDS011;44149;43.060;0.104;2022-09-13T08:26:46;1.45;;;0.45;;
58340;SDS011;44149;43.060;0.104;2022-09-13T08:29:13;1.40;;;0.40;;
58340;SDS011;44149;43.060;0.104;2022-09-13T08:31:39;3.17;;;0.80;;
58340;SDS011;44149;43.060;0.104;2022-09-13T08:34:06;2.28;;;0.77;;
58340;SDS011;44149;43.060;0.104;2022-09-13T08:36:35;1.13;;;0.60;;
58340;SDS011;44149;43.060;0.104;2022-09-13T08:39:01;1.20;;;0.43;;
58340;SDS011;44149;43.060;0.104;2022-09-13T08:47:07;1.73;;;0.57;;
58340;SDS011;44149;43.060;0.104;2022-09-13T08:49:42;2.55;;;0.50;;
58340;SDS011;44149;43.060;0.104;2022-09-13T08:52:19;0.43;;;0.40;;
58340;SDS011;44149;43.060;0.104;2022-09-13T08:54:49;0.40;;;0.20;;
58340;SDS011;44149;43.060;0.104;2022-09-13T08:57:21;0.77;;;0.68;;
58340;SDS011;44149;43.060;0.104;2022-09-13T09:07:40;4.57;;;0.50;;
58340;SDS011;44149;43.060;0.104;2022-09-13T09:10:18;4.28;;;0.98;;
58340;SDS011;44149;43.060;0.104;2022-09-13T09:12:46;2.53;;;0.70;;
58340;SDS011;44149;43.060;0.104;2022-09-13T09:15:17;1.02;;;0.50;;
58340;SDS011;44149;43.060;0.104;2022-09-13T09:18:45;1.35;;;0.47;;
58340;SDS011;44149;43.060;0.104;2022-09-13T09:20:41;1.52;;;0.40;;
58340;SDS011;44149;43.060;0.104;2022-09-13T09:25:39;1.80;;;0.40;;
58340;SDS011;44149;43.060;0.104;2022-09-13T09:28:10;0.50;;;0.30;;
58340;SDS011;44149;43.060;0.104;2022-09-13T09:33:22;0.20;;;0.20;;
58340;SDS011;44149;43.060;0.104;2022-09-13T09:36:14;0.35;;;0.25;;
58340;SDS011;44149;43.060;0.104;2022-09-13T09:38:41;1.10;;;0.50;;
58340;SDS011;44149;43.060;0.104;2022-09-13T09:41:11;0.15;;;0.15;;
58340;SDS011;44149;43.060;0.104;2022-09-13T09:43:40;3.00;;;0.20;;
58340;SDS011;44149;43.060;0.104;2022-09-13T09:46:08;0.10;;;0.10;;
58340;SDS011;44149;43.060;0.104;2022-09-13T09:48:40;2.33;;;0.40;;
58340;SDS011;44149;43.060;0.104;2022-09-13T09:51:06;1.35;;;0.35;;
58340;SDS011;44149;43.060;0.104;2022-09-13T09:53:36;0.70;;;0.40;;
58340;SDS011;44149;43.060;0.104;2022-09-13T09:56:20;0.88;;;0.38;;
58340;SDS011;44149;43.060;0.104;2022-09-13T09:58:47;2.08;;;0.32;;
58340;SDS011;44149;43.060;0.104;2022-09-13T10:03:51;0.75;;;0.30;;
58340;SDS011;44149;43.060;0.104;2022-09-13T10:06:18;0.98;;;0.38;;
58340;SDS011;44149;43.060;0.104;2022-09-13T10:08:58;0.57;;;0.22;;
58340;SDS011;44149;43.060;0.104;2022-09-13T10:11:44;0.90;;;0.20;;
58340;SDS011;44149;43.060;0.104;2022-09-13T10:14:28;0.63;;;0.30;;
58340;SDS011;44149;43.060;0.104;2022-09-13T10:17:28;0.40;;;0.20;;
58340;SDS011;44149;43.060;0.104;2022-09-13T10:19:57;2.53;;;0.40;;
58340;SDS011;44149;43.060;0.104;2022-09-13T10:22:32;0.55;;;0.30;;
58340;SDS011;44149;43.060;0.104;2022-09-13T10:29:51;1.48;;;0.35;;
58340;SDS011;44149;43.060;0.104;2022-09-13T10:32:19;0.40;;;0.40;;
58340;SDS011;44149;43.060;0.104;2022-09-13T10:34:46;0.77;;;0.30;;
58340;SDS011;44149;43.060;0.104;2022-09-13T10:37:15;0.17;;;0.17;;
58340;SDS011;44149;43.060;0.104;2022-09-13T10:40:03;1.08;;;0.47;;
58340;SDS011;44149;43.060;0.104;2022-09-13T10:42:32;1.90;;;0.20;;
58340;SDS011;44149;43.060;0.104;2022-09-13T10:45:05;1.92;;;0.47;;
58340;SDS011;44149;43.060;0.104;2022-09-13T10:47:33;1.20;;;0.40;;
58340;SDS011;44149;43.060;0.104;2022-09-13T10:50:17;1.15;;;0.35;;
58340;SDS011;44149;43.060;0.104;2022-09-13T10:52:50;1.38;;;0.60;;
58340;SDS011;44149;43.060;0.104;2022-09-13T10:57:44;0.30;;;0.28;;
58340;SDS011;44149;43.060;0.104;2022-09-13T11:00:12;0.52;;;0.30;;
58340;SDS011;44149;43.060;0.104;2022-09-13T11:07:49;2.90;;;0.30;;
58340;SDS011;44149;43.060;0.104;2022-09-13T11:15:23;0.40;;;0.40;;
58340;SDS011;44149;43.060;0.104;2022-09-13T11:23:10;1.17;;;0.32;;
58340;SDS011;44149;43.060;0.104;2022-09-13T11:33:20;2.00;;;0.20;;
58340;SDS011;44149;43.060;0.104;2022-09-13T11:41:11;0.55;;;0.10;;
58340;SDS011;44149;43.060;0.104;2022-09-13T11:48:47;2.17;;;0.30;;
58340;SDS011;44149;43.060;0.104;2022-09-13T11:53:58;0.25;;;0.20;;
58340;SDS011;44149;43.060;0.104;2022-09-13T11:56:33;0.10;;;0.10;;
58340;SDS011;44149;43.060;0.104;2022-09-13T12:01:37;0.20;;;0.20;;
58340;SDS011;44149;43.060;0.104;2022-09-13T12:04:06;0.30;;;0.30;;
58340;SDS011;44149;43.060;0.104;2022-09-13T12:06:35;0.10;;;0.10;;
58340;SDS011;44149;43.060;0.104;2022-09-13T12:14:02;0.10;;;0.10;;
58340;SDS011;44149;43.060;0.104;2022-09-13T12:16:31;0.15;;;0.15;;
58340;SDS011;44149;43.060;0.104;2022-09-13T12:19:03;0.40;;;0.20;;
58340;SDS011;44149;43.060;0.104;2022-09-13T12:21:37;0.43;;;0.20;;
58340;SDS011;44149;43.060;0.104;2022-09-13T12:24:06;0.10;;;0.10;;
58340;SDS011;44149;43.060;0.104;2022-09-13T12:26:37;0.10;;;0.10;;
58340;SDS011;44149;43.060;0.104;2022-09-13T12:29:16;0.10;;;0.10;;
58340;SDS011;44149;43.060;0.104;2022-09-13T12:31:43;0.43;;;0.20;;
58340;SDS011;44149;43.060;0.104;2022-09-13T12:34:15;0.30;;;0.20;;
58340;SDS011;44149;43.060;0.104;2022-09-13T12:36:50;0.10;;;0.10;;
58340;SDS011;44149;43.060;0.104;2022-09-13T12:39:30;0.30;;;0.20;;
58340;SDS011;44149;43.060;0.104;2022-09-13T12:52:15;0.25;;;0.20;;
58340;SDS011;44149;43.060;0.104;2022-09-13T12:54:53;0.10;;;0.10;;
58340;SDS011;44149;43.060;0.104;2022-09-13T12:57:39;0.90;;;0.20;;
58340;SDS011;44149;43.060;0.104;2022-09-13T13:00:27;0.10;;;0.10;;
58340;SDS011;44149;43.060;0.104;2022-09-13T13:02:59;0.35;;;0.17;;
58340;SDS011;44149;43.060;0.104;2022-09-13T13:05:27;0.75;;;0.30;;
58340;SDS011;44149;43.060;0.104;2022-09-13T13:07:56;0.10;;;0.10;;
58340;SDS011;44149;43.060;0.104;2022-09-13T13:10:33;0.20;;;0.20;;
58340;SDS011;44149;43.060;0.104;2022-09-13T13:13:10;0.32;;;0.20;;
58340;SDS011;44149;43.060;0.104;2022-09-13T13:26:03;0.20;;;0.17;;
58340;SDS011;44149;43.060;0.104;2022-09-13T13:33:53;0.30;;;0.28;;
58340;SDS011;44149;43.060;0.104;2022-09-13T13:37:03;1.20;;;0.45;;
58340;SDS011;44149;43.060;0.104;2022-09-13T13:39:12;0.30;;;0.20;;
58340;SDS011;44149;43.060;0.104;2022-09-13T13:57:32;0.20;;;0.20;;
58340;SDS011;44149;43.060;0.104;2022-09-13T14:02:29;0.20;;;0.20;;
58340;SDS011;44149;43.060;0.104;2022-09-13T14:10:22;0.10;;;0.10;;
58340;SDS011;44149;43.060;0.104;2022-09-13T14:12:54;0.38;;;0.30;;
58340;SDS011;44149;43.060;0.104;2022-09-13T14:15:29;0.20;;;0.20;;
58340;SDS011;44149;43.060;0.104;2022-09-13T14:21:02;0.30;;;0.20;;
58340;SDS011;44149;43.060;0.104;2022-09-13T14:23:29;0.10;;;0.10;;
58340;SDS011;44149;43.060;0.104;2022-09-13T14:25:59;0.70;;;0.22;;
58340;SDS011;44149;43.060;0.104;2022-09-13T14:28:25;2.17;;;0.32;;
58340;SDS011;44149;43.060;0.104;2022-09-13T14:30:53;0.25;;;0.25;;
58340;SDS011;44149;43.060;0.104;2022-09-13T14:33:31;1.02;;;0.43;;
58340;SDS011;44149;43.060;0.104;2022-09-13T14:36:06;0.77;;;0.30;;
58340;SDS011;44149;43.060;0.104;2022-09-13T14:38:33;0.28;;;0.20;;
58340;SDS011;44149;43.060;0.104;2022-09-13T14:41:11;0.25;;;0.20;;
58340;SDS011;44149;43.060;0.104;2022-09-13T14:43:38;0.13;;;0.13;;
58340;SDS011;44149;43.060;0.104;2022-09-13T14:51:00;0.88;;;0.30;;
58340;SDS011;44149;43.060;0.104;2022-09-13T14:53:29;0.52;;;0.43;;
58340;SDS011;44149;43.060;0.104;2022-09-13T14:55:58;1.55;;;0.30;;
58340;SDS011;44149;43.060;0.104;2022-09-13T14:58:26;0.20;;;0.20;;
58340;SDS011;44149;43.060;0.104;2022-09-13T15:01:00;0.20;;;0.20;;
58340;SDS011;44149;43.060;0.104;2022-09-13T15:03:27;0.40;;;0.20;;
58340;SDS011;44149;43.060;0.104;2022-09-13T15:05:57;0.20;;;0.20;;
58340;SDS011;44149;43.060;0.104;2022-09-13T15:10:52;0.75;;;0.30;;
58340;SDS011;44149;43.060;0.104;2022-09-13T15:13:21;0.50;;;0.30;;
58340;SDS011;44149;43.060;0.104;2022-09-13T15:15:47;1.65;;;0.28;;
58340;SDS011;44149;43.060;0.104;2022-09-13T15:23:58;1.13;;;0.50;;
58340;SDS011;44149;43.060;0.104;2022-09-13T15:26:18;0.30;;;0.30;;
58340;SDS011;44149;43.060;0.104;2022-09-13T15:31:25;0.52;;;0.28;;
58340;SDS011;44149;43.060;0.104;2022-09-13T15:36:37;0.30;;;0.30;;
58340;SDS011;44149;43.060;0.104;2022-09-13T15:41:37;1.45;;;0.30;;
58340;SDS011;44149;43.060;0.104;2022-09-13T15:44:05;0.30;;;0.30;;
58340;SDS011;44149;43.060;0.104;2022-09-13T15:46:31;0.10;;;0.10;;
58340;SDS011;44149;43.060;0.104;2022-09-13T15:49:03;0.15;;;0.15;;
58340;SDS011;44149;43.060;0.104;2022-09-13T15:51:30;1.65;;;0.45;;
58340;SDS011;44149;43.060;0.104;2022-09-13T15:53:57;1.95;;;0.30;;
58340;SDS011;44149;43.060;0.104;2022-09-13T15:56:27;0.20;;;0.20;;
58340;SDS011;44149;43.060;0.104;2022-09-13T15:58:55;0.30;;;0.30;;
58340;SDS011;44149;43.060;0.104;2022-09-13T16:01:22;1.17;;;0.32;;
58340;SDS011;44149;43.060;0.104;2022-09-13T16:03:48;0.40;;;0.30;;
58340;SDS011;44149;43.060;0.104;2022-09-13T16:06:14;0.30;;;0.28;;
58340;SDS011;44149;43.060;0.104;2022-09-13T16:08:40;0.30;;;0.25;;
58340;SDS011;44149;43.060;0.104;2022-09-13T16:11:07;0.93;;;0.30;;
58340;SDS011;44149;43.060;0.104;2022-09-13T16:13:33;0.22;;;0.22;;
58340;SDS011;44149;43.060;0.104;2022-09-13T16:16:01;0.57;;;0.30;;
58340;SDS011;44149;43.060;0.104;2022-09-13T16:18:29;0.95;;;0.30;;
58340;SDS011;44149;43.060;0.104;2022-09-13T16:20:55;0.50;;;0.30;;
58340;SDS011;44149;43.060;0.104;2022-09-13T16:23:21;0.20;;;0.20;;
58340;SDS011;44149;43.060;0.104;2022-09-13T16:25:49;1.35;;;0.20;;
58340;SDS011;44149;43.060;0.104;2022-09-13T16:28:17;0.25;;;0.25;;
58340;SDS011;44149;43.060;0.104;2022-09-13T16:30:46;0.20;;;0.20;;
58340;SDS011;44149;43.060;0.104;2022-09-13T16:33:12;0.10;;;0.10;;
58340;SDS011;44149;43.060;0.104;2022-09-13T16:35:39;0.73;;;0.20;;
58340;SDS011;44149;43.060;0.104;2022-09-13T16:38:05;0.13;;;0.13;;
58340;SDS011;44149;43.060;0.104;2022-09-13T16:40:31;0.20;;;0.20;;
58340;SDS011;44149;43.060;0.104;2022-09-13T16:42:57;0.20;;;0.20;;
58340;SDS011;44149;43.060;0.104;2022-09-13T16:45:23;0.10;;;0.10;;
58340;SDS011;44149;43.060;0.104;2022-09-13T16:47:50;0.40;;;0.20;;
58340;SDS011;44149;43.060;0.104;2022-09-13T16:50:16;0.35;;;0.20;;
58340;SDS011;44149;43.060;0.104;2022-09-13T16:52:45;0.10;;;0.10;;
58340;SDS011;44149;43.060;0.104;2022-09-13T16:55:11;0.35;;;0.30;;
58340;SDS011;44149;43.060;0.104;2022-09-13T16:57:38;1.10;;;0.20;;
58340;SDS011;44149;43.060;0.104;2022-09-13T17:00:06;0.93;;;0.20;;
58340;SDS011;44149;43.060;0.104;2022-09-13T17:02:36;0.10;;;0.10;;
58340;SDS011;44149;43.060;0.104;2022-09-13T17:05:03;0.13;;;0.13;;
58340;SDS011;44149;43.060;0.104;2022-09-13T17:07:31;0.30;;;0.30;;
58340;SDS011;44149;43.060;0.104;2022-09-13T17:09:58;0.40;;;0.20;;
58340;SDS011;44149;43.060;0.104;2022-09-13T17:12:24;0.50;;;0.30;;
58340;SDS011;44149;43.060;0.104;2022-09-13T17:14:51;0.10;;;0.10;;
58340;SDS011;44149;43.060;0.104;2022-09-13T17:17:19;1.45;;;0.20;;
58340;SDS011;44149;43.060;0.104;2022-09-13T17:19:45;0.20;;;0.20;;
58340;SDS011;44149;43.060;0.104;2022-09-13T17:22:12;0.60;;;0.30;;
58340;SDS011;44149;43.060;0.104;2022-09-13T17:24:38;2.50;;;0.40;;
58340;SDS011;44149;43.060;0.104;2022-09-13T17:27:05;0.20;;;0.20;;
58340;SDS011;44149;43.060;0.104;2022-09-13T17:29:32;0.22;;;0.20;;
58340;SDS011;44149;43.060;0.104;2022-09-13T17:31:59;0.60;;;0.20;;
58340;SDS011;44149;43.060;0.104;2022-09-13T17:34:26;2.65;;;0.40;;
58340;SDS011;44149;43.060;0.104;2022-09-13T17:36:55;0.20;;;0.20;;
58340;SDS011;44149;43.060;0.104;2022-09-13T17:39:21;2.33;;;0.68;;
58340;SDS011;44149;43.060;0.104;2022-09-13T17:41:47;0.30;;;0.30;;
58340;SDS011;44149;43.060;0.104;2022-09-13T17:44:15;1.67;;;0.38;;
58340;SDS011;44149;43.060;0.104;2022-09-13T17:46:41;1.73;;;0.28;;
58340;SDS011;44149;43.060;0.104;2022-09-13T17:49:07;1.48;;;0.47;;
58340;SDS011;44149;43.060;0.104;2022-09-13T17:51:33;0.30;;;0.30;;
58340;SDS011;44149;43.060;0.104;2022-09-13T17:54:01;1.15;;;0.30;;
58340;SDS011;44149;43.060;0.104;2022-09-13T17:56:32;2.22;;;0.20;;
58340;SDS011;44149;43.060;0.104;2022-09-13T17:59:33;0.35;;;0.35;;
58340;SDS011;44149;43.060;0.104;2022-09-13T18:01:52;0.43;;;0.30;;
58340;SDS011;44149;43.060;0.104;2022-09-13T18:04:22;0.28;;;0.20;;
58340;SDS011;44149;43.060;0.104;2022-09-13T18:06:51;1.00;;;0.20;;
58340;SDS011;44149;43.060;0.104;2022-09-13T18:09:18;0.35;;;0.30;;
58340;SDS011;44149;43.060;0.104;2022-09-13T18:11:44;1.45;;;0.20;;
58340;SDS011;44149;43.060;0.104;2022-09-13T18:14:11;0.28;;;0.22;;
58340;SDS011;44149;43.060;0.104;2022-09-13T18:16:37;0.30;;;0.30;;
58340;SDS011;44149;43.060;0.104;2022-09-13T18:19:04;0.20;;;0.20;;
58340;SDS011;44149;43.060;0.104;2022-09-13T18:21:30;0.60;;;0.25;;
58340;SDS011;44149;43.060;0.104;2022-09-13T18:23:57;1.55;;;0.30;;
58340;SDS011;44149;43.060;0.104;2022-09-13T18:26:24;0.10;;;0.10;;
58340;SDS011;44149;43.060;0.104;2022-09-13T18:29:09;0.43;;;0.20;;